Time;durP1;ratioP1;P1;durP2;ratioP2;P2;SDS_P1;SDS_P2;PMS_P1;PMS_P2;Temp;Humidity;BMP_temperature;BMP_pressure;BME280_temperature;BME280_humidity;BME280_pressure;Samples;Min_cycle;Max_cycle;Signal;HPM_P1;HPM_P2
2023/10/28 00:00:02;;;;;;;30.20;13.50;;;;;;;15.36;65.00;96985.52;67934;1273;1016486;-66
2023/10/28 00:03:05;;;;;;;29.10;13.80;;;;;;;15.44;64.55;96991.69;67876;1272;1016440;-68
2023/10/28 00:06:08;;;;;;;29.80;13.00;;;;;;;15.46;64.42;96990.56;67936;1273;1016345;-67
2023/10/28 00:09:11;;;;;;;28.10;12.70;;;;;;;15.35;64.80;96990.42;67889;1273;1016349;-68
2023/10/28 00:12:14;;;;;;;31.60;13.30;;;;;;;15.11;65.76;96991.74;67927;1273;1016316;-68
2023/10/28 00:15:18;;;;;;;;;;;;;;;15.06;65.93;96988.27;67917;1273;1016437;-69
2023/10/28 00:18:21;;;;;;;30.70;13.80;;;;;;;15.07;66.02;96996.21;67871;1272;1016395;-66
2023/10/28 00:21:23;;;;;;;28.20;12.60;;;;;;;15.09;65.78;96996.95;67885;1273;1016346;-68
2023/10/28 00:24:26;;;;;;;28.60;13.20;;;;;;;15.06;65.99;97000.86;67925;1273;1016349;-68
2023/10/28 00:27:29;;;;;;;31.30;13.80;;;;;;;15.15;65.58;96997.13;67898;1273;1016396;-68
2023/10/28 00:30:31;;;;;;;30.00;15.10;;;;;;;15.21;65.30;96997.18;67909;1273;1016371;-68
2023/10/28 00:33:34;;;;;;;31.70;14.50;;;;;;;15.20;65.36;96995.73;67883;1273;1015569;-68
2023/10/28 00:36:37;;;;;;;28.80;13.50;;;;;;;15.20;65.45;97003.59;67895;1273;1016455;-68
2023/10/28 00:39:39;;;;;;;32.50;15.60;;;;;;;15.23;65.18;97004.52;67893;1273;1017230;-68
2023/10/28 00:42:42;;;;;;;33.10;15.60;;;;;;;15.19;65.33;97006.88;67938;1273;1016452;-68
2023/10/28 00:45:44;;;;;;;32.80;15.40;;;;;;;15.33;64.77;97009.80;67891;1273;1016441;-67
2023/10/28 00:48:46;;;;;;;32.50;14.80;;;;;;;15.53;64.09;97014.12;67876;1273;1016430;-68
2023/10/28 00:51:49;;;;;;;32.20;15.10;;;;;;;15.54;63.92;97013.06;67867;1273;1015990;-68
2023/10/28 00:54:54;;;;;;;30.70;15.30;;;;;;;15.49;64.04;97010.66;67897;1273;1016397;-67
2023/10/28 00:57:56;;;;;;;31.80;15.70;;;;;;;15.69;63.20;97015.20;67897;1273;1016447;-67
2023/10/28 01:00:59;;;;;;;31.70;15.00;;;;;;;15.64;63.43;97017.30;67899;1273;1016420;-68
2023/10/28 01:04:01;;;;;;;;;;;;;;;15.48;63.87;97020.15;67852;1273;1015709;-67
2023/10/28 01:07:04;;;;;;;31.10;14.30;;;;;;;15.45;63.88;97020.62;67852;1273;1016514;-67
2023/10/28 01:10:06;;;;;;;28.10;13.10;;;;;;;15.38;63.97;97027.39;67927;1273;1016704;-68
2023/10/28 01:13:08;;;;;;;30.70;14.50;;;;;;;15.39;64.13;97028.72;67928;1273;1016433;-69
2023/10/28 01:16:11;;;;;;;32.00;14.30;;;;;;;15.52;63.73;97035.36;67689;1273;1293596;-67
2023/10/28 01:19:13;;;;;;;34.40;14.70;;;;;;;15.42;64.11;97039.40;67906;1273;1016393;-68
2023/10/28 01:22:15;;;;;;;32.30;14.80;;;;;;;15.43;64.25;97039.17;67889;1273;1017533;-67
2023/10/28 01:25:19;;;;;;;34.20;16.00;;;;;;;15.52;64.18;97037.30;67893;1273;1016211;-68
2023/10/28 01:28:21;;;;;;;33.50;16.10;;;;;;;15.75;63.16;97042.73;67889;1273;1016130;-66
2023/10/28 01:31:24;;;;;;;31.90;16.00;;;;;;;15.65;63.51;97040.08;67854;1273;1016345;-68
2023/10/28 01:34:26;;;;;;;31.70;14.80;;;;;;;15.64;63.59;97043.36;67946;1273;1015896;-68
2023/10/28 01:37:28;;;;;;;32.00;14.60;;;;;;;15.61;63.70;97039.10;67914;1273;1015515;-67
2023/10/28 01:40:31;;;;;;;41.90;17.60;;;;;;;15.41;64.46;97039.05;67911;1273;1016455;-65
2023/10/28 01:43:33;;;;;;;32.60;14.50;;;;;;;15.35;64.86;97038.64;67877;1273;1016484;-68
2023/10/28 01:46:36;;;;;;;28.90;12.80;;;;;;;15.40;64.74;97040.41;67889;1273;1016460;-68
2023/10/28 01:49:38;;;;;;;29.40;12.50;;;;;;;15.49;64.39;97040.65;67919;1273;1016153;-68
2023/10/28 01:52:40;;;;;;;28.20;11.80;;;;;;;15.50;64.44;97045.64;67909;1273;1015702;-68
2023/10/28 01:55:43;;;;;;;31.10;12.20;;;;;;;15.48;64.30;97049.14;67912;1273;1016371;-68
2023/10/28 01:58:45;;;;;;;29.10;12.70;;;;;;;15.45;64.45;97051.09;67869;1273;1017279;-68
2023/10/28 02:01:48;;;;;;;28.80;12.90;;;;;;;15.39;64.80;97057.77;67892;1273;1020142;-68
2023/10/28 02:04:51;;;;;;;29.00;13.30;;;;;;;15.39;65.09;97052.27;67897;1273;1016365;-69
2023/10/28 02:07:54;;;;;;;27.80;12.20;;;;;;;15.43;64.91;97054.95;67835;1273;1015911;-68
2023/10/28 02:10:56;;;;;;;28.10;12.50;;;;;;;15.46;64.86;97057.82;67869;1273;1016458;-68
2023/10/28 02:13:58;;;;;;;27.90;12.80;;;;;;;15.44;64.93;97060.73;67964;1273;1016828;-67
2023/10/28 02:17:01;;;;;;;28.10;12.20;;;;;;;15.28;65.83;97068.32;67879;1273;1016397;-68
2023/10/28 02:20:05;;;;;;;25.50;11.50;;;;;;;15.30;65.66;97064.16;67886;1273;1016455;-68
2023/10/28 02:23:09;;;;;;;25.50;10.70;;;;;;;15.52;64.92;97069.35;67891;1273;1016374;-68
2023/10/28 02:26:11;;;;;;;28.00;11.10;;;;;;;15.48;65.15;97069.65;67873;1273;1016289;-68
2023/10/28 02:29:14;;;;;;;25.80;10.40;;;;;;;15.43;65.32;97074.02;67846;1273;1016378;-68
2023/10/28 02:32:16;;;;;;;23.40;10.20;;;;;;;15.57;65.02;97075.84;67884;1273;1016290;-68
2023/10/28 02:35:18;;;;;;;23.50;9.60;;;;;;;15.66;64.71;97082.49;67918;1273;1016284;-69
2023/10/28 02:38:21;;;;;;;22.70;9.00;;;;;;;15.62;64.92;97089.41;67939;1273;1016282;-68
2023/10/28 02:41:23;;;;;;;23.10;8.80;;;;;;;15.79;64.32;97094.85;67914;1273;1016421;-68
2023/10/28 02:44:26;;;;;;;23.60;8.80;;;;;;;15.73;64.45;97097.52;67859;1273;1016163;-68
2023/10/28 02:47:28;;;;;;;21.80;8.00;;;;;;;15.64;64.83;97103.13;67889;1273;1016377;-68
2023/10/28 02:50:32;;;;;;;21.90;7.70;;;;;;;15.46;65.58;97109.08;67839;1273;1016633;-68
2023/10/28 02:53:34;;;;;;;20.60;7.80;;;;;;;15.48;65.66;97114.39;67892;1273;1016642;-68
2023/10/28 02:56:38;;;;;;;21.10;7.90;;;;;;;15.40;65.87;97111.66;67920;1273;1016119;-68
2023/10/28 02:59:40;;;;;;;20.50;7.80;;;;;;;15.36;66.12;97116.48;67873;1273;1016103;-68
2023/10/28 03:02:42;;;;;;;20.30;7.30;;;;;;;15.47;65.58;97118.86;67889;1273;1016797;-63
2023/10/28 03:05:45;;;;;;;21.70;8.10;;;;;;;15.52;65.01;97122.95;67933;1273;1016435;-67
2023/10/28 03:08:47;;;;;;;20.30;7.70;;;;;;;15.60;64.79;97121.55;67877;1273;1018178;-65
2023/10/28 03:11:49;;;;;;;21.30;7.40;;;;;;;15.55;64.46;97122.61;67910;1273;1016410;-68
2023/10/28 03:14:52;;;;;;;22.10;8.20;;;;;;;15.51;64.63;97123.75;67860;1273;1016396;-65
2023/10/28 03:17:54;;;;;;;21.50;7.60;;;;;;;15.53;64.49;97132.36;67904;1273;1016355;-67
2023/10/28 03:20:57;;;;;;;21.00;7.70;;;;;;;15.35;65.15;97136.52;67890;1273;1016273;-68
2023/10/28 03:23:59;;;;;;;22.20;8.00;;;;;;;15.30;65.44;97140.39;67895;1273;1017534;-68
2023/10/28 03:27:01;;;;;;;23.90;7.80;;;;;;;15.38;65.21;97145.87;67932;1273;1016218;-68
2023/10/28 03:30:06;;;;;;;21.70;8.40;;;;;;;15.46;64.80;97145.41;67857;1273;1016562;-68
2023/10/28 03:33:08;;;;;;;23.80;8.00;;;;;;;15.56;64.36;97151.42;67853;1250;1017044;-68
2023/10/28 03:36:11;;;;;;;23.10;8.00;;;;;;;15.67;63.99;97148.10;67884;1273;1016393;-68
2023/10/28 03:39:15;;;;;;;22.20;7.80;;;;;;;15.63;63.81;97153.76;67847;1273;1016442;-68
2023/10/28 03:42:17;;;;;;;22.90;7.60;;;;;;;15.60;63.85;97159.94;67825;1273;1016179;-67
2023/10/28 03:45:20;;;;;;;22.40;8.10;;;;;;;15.66;63.52;97156.69;67919;1273;1019384;-68
2023/10/28 03:48:23;;;;;;;21.50;7.70;;;;;;;15.63;63.43;97161.42;67898;1273;1016515;-68
2023/10/28 03:51:25;;;;;;;;;;;;;;;15.55;63.38;97160.66;67888;1273;1016416;-68
2023/10/28 03:54:28;;;;;;;22.10;7.40;;;;;;;15.49;63.40;97160.01;67874;1273;1016182;-68
2023/10/28 03:57:31;;;;;;;21.90;7.60;;;;;;;15.41;63.48;97160.93;67890;1273;1019316;-68
2023/10/28 04:00:34;;;;;;;21.10;7.20;;;;;;;15.30;63.89;97164.20;67876;1273;1016353;-68
2023/10/28 04:03:36;;;;;;;20.30;7.70;;;;;;;15.40;63.53;97157.63;67880;1273;1016372;-68
2023/10/28 04:06:39;;;;;;;20.50;7.10;;;;;;;15.45;63.60;97162.96;67905;1273;1016493;-67
2023/10/28 04:09:42;;;;;;;22.90;7.10;;;;;;;15.47;63.49;97168.77;67863;1273;1016424;-68
2023/10/28 04:12:44;;;;;;;20.40;6.90;;;;;;;15.42;63.70;97174.55;67897;1273;1018814;-68
2023/10/28 04:15:47;;;;;;;18.50;6.50;;;;;;;15.43;63.61;97174.63;67923;1273;1015864;-68
2023/10/28 04:18:49;;;;;;;21.20;7.10;;;;;;;15.43;63.74;97172.85;67854;1273;1016206;-69
2023/10/28 04:21:51;;;;;;;20.50;7.10;;;;;;;15.49;63.50;97172.06;67886;1273;1016444;-69
2023/10/28 04:24:54;;;;;;;21.10;6.70;;;;;;;15.52;63.30;97173.33;67887;1273;1016442;-68
2023/10/28 04:27:56;;;;;;;24.20;7.50;;;;;;;15.58;63.07;97173.21;67867;1273;1016417;-68
2023/10/28 04:30:59;;;;;;;21.00;7.80;;;;;;;15.48;63.44;97170.41;67914;1273;1016214;-68
2023/10/28 04:34:03;;;;;;;20.10;7.50;;;;;;;15.54;63.36;97171.85;67915;1273;1016447;-68
2023/10/28 04:37:06;;;;;;;19.90;7.00;;;;;;;15.58;63.26;97168.52;67947;1273;1016327;-68
2023/10/28 04:40:08;;;;;;;22.00;8.00;;;;;;;15.63;63.12;97172.53;67903;1273;1016471;-69
2023/10/28 04:43:11;;;;;;;19.70;7.60;;;;;;;15.70;62.91;97176.41;67925;1273;1016148;-68
2023/10/28 04:46:13;;;;;;;23.10;8.70;;;;;;;15.66;63.14;97180.65;67949;1273;1016372;-68
2023/10/28 04:49:16;;;;;;;24.50;9.60;;;;;;;15.69;63.17;97183.27;67850;1273;1016204;-69
2023/10/28 04:52:20;;;;;;;23.10;8.60;;;;;;;15.61;63.45;97186.27;67880;1273;1016149;-68
2023/10/28 04:55:23;;;;;;;27.70;11.60;;;;;;;15.58;63.70;97187.02;67864;1273;1015902;-68
2023/10/28 04:58:26;;;;;;;23.20;8.90;;;;;;;15.58;63.93;97192.94;67920;1273;1016489;-68
2023/10/28 05:01:29;;;;;;;21.10;7.90;;;;;;;15.50;64.39;97195.55;67889;1273;1016132;-68
2023/10/28 05:04:31;;;;;;;;;;;;;;;15.49;64.41;97198.95;67925;1273;1016369;-69
2023/10/28 05:07:34;;;;;;;22.40;8.80;;;;;;;15.45;64.77;97199.73;67848;1273;1016211;-69
2023/10/28 05:10:37;;;;;;;23.00;8.50;;;;;;;15.48;64.77;97200.52;67921;1273;1015878;-69
2023/10/28 05:13:41;;;;;;;22.20;9.20;;;;;;;15.54;64.61;97213.61;67847;1273;1016429;-68
2023/10/28 05:16:43;;;;;;;23.10;9.90;;;;;;;15.64;64.19;97213.83;67898;1273;1016410;-68
2023/10/28 05:19:46;;;;;;;23.40;8.10;;;;;;;15.59;64.45;97214.77;67929;1273;1016441;-69
2023/10/28 05:22:48;;;;;;;23.30;8.80;;;;;;;15.60;64.58;97217.70;67856;1273;1018847;-68
2023/10/28 05:25:51;;;;;;;20.50;8.20;;;;;;;15.63;64.27;97225.30;67869;1273;1016373;-68
2023/10/28 05:28:54;;;;;;;24.10;9.80;;;;;;;15.51;64.76;97231.71;67907;1273;1016183;-69
2023/10/28 05:31:58;;;;;;;22.20;8.00;;;;;;;15.51;65.05;97240.92;67866;1273;1016580;-68
2023/10/28 05:35:02;;;;;;;22.20;8.50;;;;;;;15.55;65.04;97237.62;67895;1273;1016470;-68
2023/10/28 05:38:04;;;;;;;22.80;8.00;;;;;;;15.70;64.59;97241.67;67916;1273;1016458;-68
2023/10/28 05:41:09;;;;;;;21.30;7.90;;;;;;;15.73;64.44;97248.23;67892;1273;1016477;-69
2023/10/28 05:44:11;;;;;;;22.90;8.50;;;;;;;15.69;64.65;97252.89;67860;1273;1016694;-68
2023/10/28 05:47:16;;;;;;;22.80;8.50;;;;;;;15.70;64.63;97254.31;67899;1273;1016456;-68
2023/10/28 05:50:18;;;;;;;23.70;9.10;;;;;;;15.78;64.58;97255.48;67902;1273;1016457;-68
2023/10/28 05:53:21;;;;;;;23.20;9.20;;;;;;;15.87;64.28;97251.84;67897;1273;1016174;-68
2023/10/28 05:56:23;;;;;;;20.30;8.30;;;;;;;15.88;64.30;97252.09;67895;1273;1016148;-69
2023/10/28 05:59:25;;;;;;;22.40;8.90;;;;;;;16.01;64.03;97255.83;67935;1273;1016443;-65
2023/10/28 06:02:28;;;;;;;24.10;9.10;;;;;;;16.07;63.88;97257.80;67907;1273;1016234;-68
2023/10/28 06:05:30;;;;;;;26.20;10.10;;;;;;;16.16;63.72;97256.75;67882;1273;1016690;-69
2023/10/28 06:08:33;;;;;;;29.70;10.00;;;;;;;16.15;64.01;97255.69;67864;1273;1016329;-69
2023/10/28 06:11:35;;;;;;;25.90;9.70;;;;;;;16.23;63.55;97255.17;67837;1273;1016425;-67
2023/10/28 06:14:37;;;;;;;26.10;9.70;;;;;;;16.22;63.77;97258.27;67895;1273;1016512;-69
2023/10/28 06:17:40;;;;;;;27.30;9.80;;;;;;;16.42;63.32;97258.98;67893;1273;1017954;-69
2023/10/28 06:20:42;;;;;;;25.00;10.10;;;;;;;16.36;63.29;97260.38;67925;1273;1016352;-69
2023/10/28 06:23:44;;;;;;;25.70;10.00;;;;;;;16.35;63.42;97261.67;67887;1273;1020059;-69
2023/10/28 06:26:47;;;;;;;23.90;9.60;;;;;;;16.37;63.63;97258.06;67853;1273;1016253;-69
2023/10/28 06:29:50;;;;;;;26.30;10.50;;;;;;;16.55;63.34;97259.41;67935;1273;1016240;-69
2023/10/28 06:32:52;;;;;;;26.20;9.90;;;;;;;16.75;62.65;97262.42;67918;1273;1016202;-68
2023/10/28 06:35:55;;;;;;;25.00;9.80;;;;;;;16.62;63.11;97264.49;67859;1273;1017342;-69
2023/10/28 06:38:57;;;;;;;23.20;9.20;;;;;;;16.68;63.12;97268.92;67854;1273;1016400;-68
2023/10/28 06:42:01;;;;;;;23.40;9.10;;;;;;;16.65;62.83;97269.64;67907;1273;1018007;-68
2023/10/28 06:45:03;;;;;;;23.60;8.80;;;;;;;16.60;63.08;97266.15;67881;1273;1016146;-68
2023/10/28 06:48:06;;;;;;;23.00;9.60;;;;;;;16.66;62.87;97267.59;67906;1273;1016362;-64
2023/10/28 06:51:08;;;;;;;21.30;8.80;;;;;;;16.62;63.02;97272.27;67864;1273;1016571;-68
2023/10/28 06:54:10;;;;;;;23.40;8.60;;;;;;;16.64;62.96;97275.20;67902;1273;1016489;-68
2023/10/28 06:57:13;;;;;;;21.90;8.80;;;;;;;16.78;63.02;97283.38;67874;1273;1016424;-69
2023/10/28 07:00:16;;;;;;;20.50;8.40;;;;;;;16.97;62.30;97293.66;67873;1273;1016429;-64
2023/10/28 07:03:18;;;;;;;22.20;8.10;;;;;;;16.98;62.29;97300.33;67917;1273;1016305;-66
2023/10/28 07:06:21;;;;;;;24.40;8.90;;;;;;;17.02;62.56;97304.60;67897;1273;1015978;-68
2023/10/28 07:09:23;;;;;;;21.30;7.90;;;;;;;17.10;62.44;97306.36;67880;1273;1016333;-68
2023/10/28 07:12:26;;;;;;;23.20;7.90;;;;;;;17.11;62.17;97318.10;67926;1273;1016358;-63
2023/10/28 07:15:28;;;;;;;;;;;;;;;17.29;61.86;97324.89;67953;1273;1018297;-67
2023/10/28 07:18:31;;;;;;;21.40;7.70;;;;;;;17.35;61.82;97330.21;67905;1273;1016176;-64
2023/10/28 07:21:33;;;;;;;21.40;7.30;;;;;;;17.47;61.82;97334.89;67875;1273;1016399;-66
2023/10/28 07:24:35;;;;;;;20.20;7.50;;;;;;;17.48;61.99;97342.20;67868;1273;1016403;-66
2023/10/28 07:27:38;;;;;;;26.10;8.00;;;;;;;17.58;61.82;97341.27;67888;1273;1016231;-69
2023/10/28 07:30:40;;;;;;;21.60;7.40;;;;;;;17.60;61.04;97343.67;67920;1273;1016342;-69
2023/10/28 07:33:42;;;;;;;18.80;6.40;;;;;;;17.66;60.71;97344.30;67937;1273;1018127;-69
2023/10/28 07:36:45;;;;;;;19.10;6.10;;;;;;;17.54;61.57;97350.70;67893;1273;1016314;-68
2023/10/28 07:39:48;;;;;;;19.10;6.70;;;;;;;17.58;62.13;97357.33;67869;1273;1016125;-68
2023/10/28 07:42:50;;;;;;;17.70;6.10;;;;;;;17.73;61.60;97358.35;67900;1273;1016420;-68
2023/10/28 07:45:52;;;;;;;17.70;6.40;;;;;;;17.74;61.21;97361.23;67934;1273;1016265;-67
2023/10/28 07:48:55;;;;;;;18.10;5.90;;;;;;;17.77;61.38;97367.93;67900;1273;1016430;-68
2023/10/28 07:51:57;;;;;;;17.40;5.60;;;;;;;17.78;61.30;97375.27;67877;1273;1016290;-69
2023/10/28 07:55:01;;;;;;;16.50;5.40;;;;;;;17.74;61.09;97380.14;67901;1273;1018313;-69
2023/10/28 07:58:03;;;;;;;14.60;4.80;;;;;;;17.89;60.55;97385.88;67855;1273;1016255;-69
2023/10/28 08:01:06;;;;;;;17.50;5.20;;;;;;;17.78;61.17;97388.91;67885;1273;1016415;-64
2023/10/28 08:04:08;;;;;;;17.40;5.40;;;;;;;17.92;60.64;97386.84;67899;1273;1016870;-69
2023/10/28 08:07:11;;;;;;;15.20;4.60;;;;;;;17.91;60.46;97382.13;67902;1273;1016282;-68
2023/10/28 08:10:14;;;;;;;14.20;4.60;;;;;;;17.99;59.89;97384.96;67900;1273;1018125;-69
2023/10/28 08:13:17;;;;;;;14.10;4.30;;;;;;;18.06;59.42;97391.23;67931;1273;1016454;-69
2023/10/28 08:16:20;;;;;;;14.80;4.50;;;;;;;18.17;59.69;97392.73;67926;1273;1018720;-69
2023/10/28 08:19:24;;;;;;;16.20;4.80;;;;;;;18.32;59.69;97395.62;67920;1273;1016331;-69
2023/10/28 08:22:27;;;;;;;16.00;4.50;;;;;;;18.49;59.05;97397.59;67919;1273;1016293;-69
2023/10/28 08:25:29;;;;;;;16.50;4.30;;;;;;;18.49;58.69;97400.59;67928;1273;1016382;-69
2023/10/28 08:28:32;;;;;;;14.50;5.10;;;;;;;18.55;58.07;97411.90;67860;1273;1016450;-67
2023/10/28 08:31:35;;;;;;;;;;;;;;;18.56;58.57;97417.83;67912;1273;1016458;-69
2023/10/28 08:34:38;;;;;;;17.00;4.60;;;;;;;18.59;58.26;97427.40;67902;1273;1016931;-69
2023/10/28 08:37:41;;;;;;;18.90;5.00;;;;;;;18.65;57.66;97438.63;67926;1273;1016321;-69
2023/10/28 08:40:43;;;;;;;13.40;3.80;;;;;;;18.85;58.62;97438.01;67897;1273;1018431;-68
2023/10/28 08:43:46;;;;;;;10.40;3.60;;;;;;;18.98;57.85;97445.27;67885;1273;1016425;-68
2023/10/28 08:46:49;;;;;;;14.80;4.10;;;;;;;19.00;57.22;97451.94;67885;1273;1016201;-68
2023/10/28 08:49:52;;;;;;;14.50;4.30;;;;;;;19.12;57.67;97455.63;67864;1273;1016490;-68
2023/10/28 08:52:54;;;;;;;15.60;4.30;;;;;;;19.41;57.28;97456.50;67897;1273;1016108;-69
2023/10/28 08:55:57;;;;;;;14.10;4.50;;;;;;;19.41;56.25;97463.84;67942;1273;1018035;-66
2023/10/28 08:58:59;;;;;;;17.00;4.50;;;;;;;19.53;55.76;97468.12;67880;1273;1016118;-68
2023/10/28 09:02:07;;;;;;;14.50;4.20;;;;;;;19.60;54.57;97475.70;67902;1273;1016642;-67
2023/10/28 09:05:10;;;;;;;16.70;4.80;;;;;;;19.54;54.26;97479.30;67907;1273;1016072;-67
2023/10/28 09:08:13;;;;;;;16.00;3.80;;;;;;;19.90;54.95;97477.91;67891;1273;1016384;-68
2023/10/28 09:11:15;;;;;;;15.70;4.10;;;;;;;19.95;53.04;97475.38;67897;1273;1016390;-68
2023/10/28 09:14:18;;;;;;;17.00;3.70;;;;;;;20.00;53.54;97475.91;67896;1273;1016324;-69
2023/10/28 09:17:21;;;;;;;10.70;2.90;;;;;;;20.04;52.45;97485.34;67938;1273;1016703;-69
2023/10/28 09:20:24;;;;;;;13.90;3.80;;;;;;;20.21;52.36;97482.50;67873;1273;1016426;-69
2023/10/28 09:23:30;;;;;;;13.50;3.30;;;;;;;20.19;52.65;97480.77;67887;1273;1016301;-66
2023/10/28 09:26:32;;;;;;;10.70;3.10;;;;;;;20.18;51.48;97494.21;67909;1273;1016575;-69
2023/10/28 09:29:35;;;;;;;14.30;3.30;;;;;;;20.20;52.10;97486.49;67914;1273;1016470;-69
2023/10/28 09:32:38;;;;;;;;;;;;;;;20.18;51.81;97489.33;67934;1273;1016567;-68
2023/10/28 09:35:40;;;;;;;;;;;;;;;20.33;52.15;97490.86;67875;1273;1016431;-64
2023/10/28 09:38:43;;;;;;;14.60;3.10;;;;;;;20.16;50.53;97504.60;67923;1273;1016650;-69
2023/10/28 09:41:45;;;;;;;11.10;2.70;;;;;;;20.06;50.26;97510.48;67931;1273;1016863;-67
2023/10/28 09:44:48;;;;;;;12.40;2.90;;;;;;;20.11;50.75;97502.56;67929;1273;1016338;-68
2023/10/28 09:47:50;;;;;;;10.00;3.20;;;;;;;20.39;50.57;97499.52;67894;1273;1016222;-69
2023/10/28 09:50:53;;;;;;;11.80;2.70;;;;;;;20.58;50.05;97492.25;67898;1273;1016282;-69
2023/10/28 09:53:55;;;;;;;10.30;2.70;;;;;;;20.55;49.75;97484.24;67922;1273;1016332;-66
2023/10/28 09:56:58;;;;;;;10.90;2.70;;;;;;;20.82;49.54;97491.41;67887;1273;1016146;-67
2023/10/28 10:00:00;;;;;;;;;;;;;;;20.97;49.21;97491.89;67865;1273;1016653;-66
2023/10/28 10:03:04;;;;;;;9.20;2.30;;;;;;;21.08;48.92;97481.02;67855;1273;1016477;-66
2023/10/28 10:06:08;;;;;;;8.00;2.40;;;;;;;20.91;47.84;97495.95;67890;1273;1016346;-66
2023/10/28 10:09:12;;;;;;;8.30;2.30;;;;;;;20.84;48.59;97493.02;67856;1273;1016380;-66
2023/10/28 10:12:14;;;;;;;8.50;2.50;;;;;;;20.85;48.33;97501.39;67863;1273;1016170;-67
2023/10/28 10:15:19;;;;;;;9.70;2.20;;;;;;;20.63;48.98;97503.55;67880;1273;1016480;-67
2023/10/28 10:18:22;;;;;;;11.40;2.50;;;;;;;20.48;48.89;97506.73;67958;1273;1016394;-61
2023/10/28 10:21:24;;;;;;;10.30;2.60;;;;;;;20.21;49.14;97518.17;67913;1273;1017308;-65
2023/10/28 10:24:27;;;;;;;13.60;2.50;;;;;;;20.16;50.27;97517.60;67882;1273;1016217;-66
2023/10/28 10:27:29;;;;;;;7.50;2.40;;;;;;;20.32;49.57;97515.50;67881;1273;1019551;-65
2023/10/28 10:30:31;;;;;;;9.00;2.50;;;;;;;20.41;48.11;97516.88;67927;1273;1018361;-64
2023/10/28 10:33:34;;;;;;;11.80;2.80;;;;;;;20.10;47.83;97524.67;68301;1271;1016071;-63
2023/10/28 10:36:37;;;;;;;10.20;2.90;;;;;;;20.12;48.99;97518.35;67912;1273;1017174;-63
2023/10/28 10:39:39;;;;;;;12.20;2.80;;;;;;;20.57;47.72;97509.73;67869;1273;1016353;-66
2023/10/28 10:42:42;;;;;;;12.00;2.90;;;;;;;20.69;47.43;97509.23;67947;1273;1017362;-67
2023/10/28 10:45:44;;;;;;;13.30;3.30;;;;;;;20.69;47.05;97517.75;67922;1273;1016337;-65
2023/10/28 10:48:47;;;;;;;15.70;3.30;;;;;;;20.38;46.71;97525.52;67888;1273;1018214;-67
2023/10/28 10:51:49;;;;;;;;;;;;;;;20.41;47.08;97520.60;68721;1273;1016497;-67
2023/10/28 10:54:52;;;;;;;16.00;3.90;;;;;;;20.66;47.01;97517.95;68723;1273;1016187;-67
2023/10/28 10:57:54;;;;;;;14.20;3.60;;;;;;;20.62;47.49;97516.27;68364;1273;1017456;-66
2023/10/28 11:00:57;;;;;;;;;;;;;;;20.39;46.96;97519.18;67834;1273;1016323;-67
2023/10/28 11:04:02;;;;;;;11.40;2.90;;;;;;;20.15;47.59;97519.45;67881;1273;1016682;-67
2023/10/28 11:07:04;;;;;;;12.90;3.00;;;;;;;20.09;47.51;97520.23;67873;1273;1016438;-66
2023/10/28 11:10:08;;;;;;;11.50;2.50;;;;;;;20.08;47.75;97519.80;67850;1273;1016917;-67
2023/10/28 11:13:10;;;;;;;15.20;4.20;;;;;;;20.02;47.89;97529.52;67921;1273;1015524;-67
2023/10/28 11:16:13;;;;;;;;;;;;;;;20.11;47.95;97528.95;67886;1273;1016329;-67
2023/10/28 11:19:16;;;;;;;11.10;2.80;;;;;;;20.25;47.88;97530.86;67876;1273;1016140;-66
2023/10/28 11:22:18;;;;;;;17.10;3.00;;;;;;;20.31;48.21;97535.31;67922;1273;1016380;-66
2023/10/28 11:25:21;;;;;;;;;;;;;;;20.39;47.66;97534.43;67900;1273;1015989;-67
2023/10/28 11:28:23;;;;;;;11.70;2.80;;;;;;;20.59;47.33;97535.55;67908;1273;1016443;-67
2023/10/28 11:31:25;;;;;;;10.60;3.00;;;;;;;20.76;46.70;97546.94;67935;1273;1016658;-66
2023/10/28 11:34:28;;;;;;;11.60;2.90;;;;;;;20.86;46.48;97538.41;67915;1273;1016350;-65
2023/10/28 11:37:30;;;;;;;15.10;3.50;;;;;;;20.90;47.02;97544.98;67905;1273;1016233;-67
2023/10/28 11:40:33;;;;;;;13.50;3.00;;;;;;;21.11;46.26;97551.84;67882;1273;1016354;-66
2023/10/28 11:43:35;;;;;;;;;;;;;;;21.38;45.77;97547.31;67970;1273;1016671;-66
2023/10/28 11:46:38;;;;;;;13.70;2.50;;;;;;;21.43;45.56;97542.26;67940;1273;1016510;-64
2023/10/28 11:49:40;;;;;;;10.70;2.20;;;;;;;21.30;45.16;97549.87;67940;1273;1016429;-66
2023/10/28 11:52:43;;;;;;;13.00;2.50;;;;;;;21.30;45.52;97550.98;67882;1273;1016189;-66
2023/10/28 11:55:46;;;;;;;8.80;1.90;;;;;;;21.18;45.13;97549.44;67944;1273;1016434;-68
2023/10/28 11:58:50;;;;;;;;;;;;;;;20.82;45.12;97552.30;67970;1273;1016442;-65
2023/10/28 12:01:53;;;;;;;7.00;1.70;;;;;;;20.55;45.97;97546.36;67917;1273;1017981;-67
2023/10/28 12:04:56;;;;;;;8.10;1.80;;;;;;;20.39;46.01;97553.97;67943;1273;1016589;-67
2023/10/28 12:07:58;;;;;;;8.50;2.00;;;;;;;20.44;45.93;97550.50;67937;1273;1015759;-66
2023/10/28 12:11:01;;;;;;;14.30;2.40;;;;;;;20.14;46.24;97557.15;67885;1273;1016345;-67
2023/10/28 12:14:03;;;;;;;16.70;3.10;;;;;;;20.04;46.97;97555.06;67903;1273;1016422;-67
2023/10/28 12:17:06;;;;;;;;;;;;;;;19.95;47.24;97550.44;67931;1273;1016334;-67
2023/10/28 12:20:08;;;;;;;7.90;2.40;;;;;;;19.92;47.27;97552.16;67951;1273;1016403;-67
2023/10/28 12:23:13;;;;;;;11.20;2.80;;;;;;;19.87;47.64;97547.86;67857;1273;1016175;-67
2023/10/28 12:26:15;;;;;;;11.30;2.80;;;;;;;19.95;47.98;97550.77;67907;1273;1016692;-67
2023/10/28 12:29:17;;;;;;;12.50;2.90;;;;;;;19.90;47.66;97547.10;67907;1273;1016386;-57
2023/10/28 12:32:20;;;;;;;13.30;2.90;;;;;;;19.83;47.88;97552.00;67924;1273;1016812;-67
2023/10/28 12:35:23;;;;;;;13.20;3.00;;;;;;;19.80;48.11;97556.80;67882;1273;1016327;-67
2023/10/28 12:38:26;;;;;;;10.90;2.20;;;;;;;19.86;48.28;97549.30;67892;1273;1016487;-67
2023/10/28 12:41:28;;;;;;;6.90;1.70;;;;;;;19.86;48.56;97554.45;67917;1273;1016437;-66
2023/10/28 12:44:31;;;;;;;9.20;2.00;;;;;;;19.77;48.90;97561.89;67906;1273;1016023;-67
2023/10/28 12:47:34;;;;;;;5.00;1.60;;;;;;;19.61;49.06;97561.55;67869;1273;1016343;-67
2023/10/28 12:50:36;;;;;;;6.20;1.80;;;;;;;19.46;49.48;97563.13;67921;1273;1016550;-67
2023/10/28 12:53:39;;;;;;;10.20;2.00;;;;;;;19.43;49.87;97556.54;67951;1273;1016135;-67
2023/10/28 12:56:41;;;;;;;10.90;2.10;;;;;;;19.55;49.83;97553.40;67901;1273;1016360;-67
2023/10/28 12:59:46;;;;;;;7.90;2.20;;;;;;;19.51;50.05;97560.59;67878;1273;1016283;-68
2023/10/28 13:02:50;;;;;;;13.50;2.40;;;;;;;19.33;50.16;97562.27;67933;1273;1016054;-67
2023/10/28 13:05:52;;;;;;;11.40;3.00;;;;;;;19.27;50.63;97563.37;67964;1273;1016333;-67
2023/10/28 13:08:55;;;;;;;16.40;4.00;;;;;;;19.36;51.08;97567.40;67964;1273;1016311;-67
2023/10/28 13:11:59;;;;;;;15.90;4.50;;;;;;;19.46;51.30;97574.96;67897;1273;1016134;-67
2023/10/28 13:15:01;;;;;;;25.80;7.60;;;;;;;19.49;51.11;97580.88;67903;1273;1018412;-67
2023/10/28 13:18:04;;;;;;;22.70;6.60;;;;;;;19.36;51.44;97581.80;67794;1273;1019147;-67
2023/10/28 13:21:07;;;;;;;24.30;7.50;;;;;;;19.32;51.71;97583.85;67914;1273;1016491;-67
2023/10/28 13:24:09;;;;;;;21.80;7.20;;;;;;;19.37;51.89;97584.14;67914;1273;1016413;-65
2023/10/28 13:27:11;;;;;;;21.40;5.20;;;;;;;19.39;51.95;97586.95;67908;1273;1018758;-67
2023/10/28 13:30:15;;;;;;;;;;;;;;;19.33;52.05;97595.08;67871;1273;1015724;-67
2023/10/28 13:33:17;;;;;;;19.10;5.70;;;;;;;19.46;51.75;97599.79;67937;1273;1015570;-65
2023/10/28 13:36:20;;;;;;;22.60;5.50;;;;;;;19.41;51.26;97601.75;67906;1273;1016468;-67
2023/10/28 13:39:23;;;;;;;17.20;4.30;;;;;;;19.31;50.98;97604.73;67925;1273;1016314;-66
2023/10/28 13:42:26;;;;;;;22.00;4.10;;;;;;;19.12;51.47;97609.55;67876;1273;1018154;-67
2023/10/28 13:45:28;;;;;;;11.50;3.00;;;;;;;19.15;51.14;97610.80;67965;1273;1016175;-66
2023/10/28 13:48:31;;;;;;;14.60;3.60;;;;;;;19.06;51.45;97610.44;67953;1273;1016332;-67
2023/10/28 13:51:34;;;;;;;14.50;3.60;;;;;;;19.00;51.78;97616.27;67898;1273;1016492;-67